Accueil
METAR-TAF:

METAR-TAF

Aéroports :

Scappoose Industrial Airpark

Scappoose, Oregon, États-Unis

latitude: 45-46-09N, longitude: 122-51-44W, altitude: 16 m

Observation

Le bulletin a été fait il y a 18 minutes, à 08:53 UTC
Vent 4 kt de sud/sud-est
Température 14°C
Humidité 88%
Pression 1013 hPa
Visibilité: 16.1 km
Ciel clair

METAR: KSPB 220853Z AUTO 15004KT 10SM CLR 14/12 A2991 RMK AO2 SLP129 T01390122 50006

Heure: 02:11 (09:11 UTC)


TAF: absent

Observations et prévisions météorologiques de plus de 4000 aéroports (messages METAR et TAF).

Les stations disponibles sont représentées par des disques jaunes et rouges sur la carte.

Passer la souris dessus pour voir le nom de la station.

Cliquer dessus pour voir les observations et prévisions météorologiques.

Pour changer de carte: cliquez sur les boutons verts avec une croix noire pour zoomer, sur le bouton vert avec un tiret pour effectuer un zoom arrière, ou sur les flèches vertes pour les cartes adjacentes.


METAR-TAF: